Time;durP1;ratioP1;P1;durP2;ratioP2;P2;SDS_P1;SDS_P2;PMS_P1;PMS_P2;Temp;Humidity;BMP_temperature;BMP_pressure;BME280_temperature;BME280_humidity;BME280_pressure;Samples;Min_cycle;Max_cycle;Signal;HPM_P1;HPM_P2
2023/07/23 00:00:37;;;;;;;8.05;5.30;;;17.90;99.90;;;;;;6176524;23;20051;-84
2023/07/23 00:03:03;;;;;;;8.45;5.32;;;17.90;99.90;;;;;;6177311;23;20008;-85
2023/07/23 00:05:29;;;;;;;7.43;5.40;;;17.90;99.90;;;;;;6176577;23;20517;-85
2023/07/23 00:07:56;;;;;;;6.13;4.68;;;17.80;99.90;;;;;;6176326;23;20033;-85
2023/07/23 00:10:22;;;;;;;15.75;5.68;;;17.70;99.90;;;;;;6175762;23;20028;-85
2023/07/23 00:12:49;;;;;;;8.70;6.05;;;17.70;99.90;;;;;;6176775;23;20024;-85
2023/07/23 00:15:15;;;;;;;7.43;5.43;;;17.70;99.90;;;;;;6175861;23;20407;-86
2023/07/23 00:17:41;;;;;;;7.35;4.30;;;17.60;99.90;;;;;;6177168;23;20029;-85
2023/07/23 00:20:08;;;;;;;7.65;4.82;;;17.50;99.90;;;;;;6176472;23;20036;-85
2023/07/23 00:22:34;;;;;;;9.45;5.60;;;17.50;99.90;;;;;;6175629;23;20100;-86
2023/07/23 00:24:59;;;;;;;14.63;5.45;;;17.40;99.90;;;;;;6176146;23;20443;-85
2023/07/23 00:27:25;;;;;;;10.90;5.93;;;17.40;99.90;;;;;;6176768;23;20001;-85
2023/07/23 00:29:51;;;;;;;8.90;5.72;;;17.30;99.90;;;;;;6176977;23;20446;-85
2023/07/23 00:32:17;;;;;;;12.50;4.90;;;17.30;99.90;;;;;;6176697;23;20033;-85
2023/07/23 00:34:42;;;;;;;7.97;5.47;;;17.20;99.90;;;;;;6176823;23;19997;-85
2023/07/23 00:37:08;;;;;;;11.73;5.55;;;17.20;99.90;;;;;;6175564;23;20386;-85
2023/07/23 00:39:34;;;;;;;8.05;5.47;;;17.10;99.90;;;;;;6176170;23;20013;-85
2023/07/23 00:42:00;;;;;;;6.80;4.93;;;17.10;99.90;;;;;;6176985;23;20212;-85
2023/07/23 00:44:26;;;;;;;9.32;5.65;;;17.10;99.90;;;;;;6176370;23;20437;-85
2023/07/23 00:46:53;;;;;;;7.35;5.78;;;17.00;99.90;;;;;;6175690;23;20025;-85
2023/07/23 00:49:18;;;;;;;17.10;6.03;;;17.00;99.90;;;;;;6176443;23;20080;-85
2023/07/23 00:51:45;;;;;;;16.02;6.38;;;16.90;99.90;;;;;;6176491;23;20364;-85
2023/07/23 00:54:12;;;;;;;15.35;5.78;;;16.90;99.90;;;;;;6176926;23;20028;-85
2023/07/23 00:56:40;;;;;;;12.65;6.75;;;16.90;99.90;;;;;;6175410;23;20008;-84
2023/07/23 00:59:07;;;;;;;9.98;6.32;;;16.90;99.90;;;;;;6176404;23;20005;-85
2023/07/23 01:01:33;;;;;;;12.88;7.38;;;16.90;99.90;;;;;;6177338;23;20005;-84
2023/07/23 01:03:58;;;;;;;10.75;6.60;;;17.00;99.90;;;;;;6176334;23;20012;-85
2023/07/23 01:06:26;;;;;;;12.52;8.10;;;17.00;99.90;;;;;;6178139;23;20009;-84
2023/07/23 01:08:55;;;;;;;13.88;7.70;;;16.90;99.90;;;;;;6178453;23;20017;-85
2023/07/23 01:11:23;;;;;;;12.75;7.10;;;16.90;99.90;;;;;;6177741;23;20358;-84
2023/07/23 01:13:51;;;;;;;17.98;7.72;;;16.90;99.90;;;;;;6178724;23;20009;-85
2023/07/23 01:16:17;;;;;;;11.55;7.25;;;16.90;99.90;;;;;;6178206;23;20005;-84
2023/07/23 01:18:44;;;;;;;10.05;6.63;;;16.90;99.90;;;;;;6178503;23;20047;-85
2023/07/23 01:21:10;;;;;;;15.68;7.43;;;16.80;99.90;;;;;;6178432;23;20001;-84
2023/07/23 01:23:36;;;;;;;18.25;8.32;;;16.80;99.90;;;;;;6177391;23;19998;-85
2023/07/23 01:26:03;;;;;;;12.35;8.10;;;16.80;99.90;;;;;;6178314;23;20017;-85
2023/07/23 01:28:28;;;;;;;10.07;7.10;;;16.80;99.90;;;;;;6151933;23;20001;-85
2023/07/23 01:30:55;;;;;;;20.35;8.23;;;16.70;99.90;;;;;;6177860;23;20001;-85
2023/07/23 01:33:22;;;;;;;14.13;8.48;;;16.80;99.90;;;;;;6178240;23;19997;-85
2023/07/23 01:35:54;;;;;;;14.05;8.43;;;16.80;99.90;;;;;;6177812;23;20420;-85
2023/07/23 01:38:20;;;;;;;16.00;7.75;;;16.80;99.90;;;;;;6152270;23;20048;-86
2023/07/23 01:40:46;;;;;;;11.75;7.65;;;16.80;99.90;;;;;;6177799;23;20009;-85
2023/07/23 01:43:12;;;;;;;9.80;7.10;;;16.70;99.90;;;;;;6177992;23;20047;-85
2023/07/23 01:45:42;;;;;;;12.02;7.30;;;16.70;99.90;;;;;;6177760;23;20324;-85
2023/07/23 01:48:08;;;;;;;11.48;7.57;;;16.60;99.90;;;;;;6178326;23;20005;-85
2023/07/23 01:50:33;;;;;;;9.35;6.43;;;16.70;99.90;;;;;;6177692;23;20375;-85
2023/07/23 01:52:59;;;;;;;9.77;6.70;;;16.60;99.90;;;;;;6178510;23;20016;-85
2023/07/23 01:55:25;;;;;;;9.63;6.35;;;16.60;99.90;;;;;;6176515;23;20352;-85
2023/07/23 01:57:51;;;;;;;11.45;6.78;;;16.60;99.90;;;;;;6177461;23;20027;-85
2023/07/23 02:00:19;;;;;;;8.02;6.15;;;16.60;99.90;;;;;;6178085;23;20005;-85
2023/07/23 02:02:44;;;;;;;10.70;7.05;;;16.60;99.90;;;;;;6178059;23;20482;-85
2023/07/23 02:05:10;;;;;;;9.73;6.75;;;16.50;99.90;;;;;;6176799;23;20095;-85
2023/07/23 02:07:36;;;;;;;11.82;6.63;;;16.60;99.90;;;;;;6178162;23;20001;-85
2023/07/23 02:10:02;;;;;;;7.72;5.93;;;16.50;99.90;;;;;;6178318;23;20438;-85
2023/07/23 02:12:27;;;;;;;8.35;5.90;;;16.50;99.90;;;;;;6177294;23;20001;-86
2023/07/23 02:14:53;;;;;;;9.43;6.43;;;16.50;99.90;;;;;;6177046;23;20039;-85
2023/07/23 02:17:19;;;;;;;8.32;6.50;;;16.50;99.90;;;;;;6178663;23;19997;-85
2023/07/23 02:19:45;;;;;;;7.53;6.25;;;16.50;99.90;;;;;;6178217;23;20259;-86
2023/07/23 02:22:11;;;;;;;8.13;6.03;;;16.40;99.90;;;;;;6177735;23;20001;-85
2023/07/23 02:24:37;;;;;;;13.27;7.28;;;16.50;99.90;;;;;;6178444;23;20009;-85
2023/07/23 02:27:03;;;;;;;9.52;6.63;;;16.50;99.90;;;;;;6176132;23;20036;-85
2023/07/23 02:29:28;;;;;;;12.27;7.20;;;16.50;99.90;;;;;;6177643;23;20005;-85
2023/07/23 02:31:54;;;;;;;12.07;8.05;;;16.40;99.90;;;;;;6177336;23;20035;-85
2023/07/23 02:34:20;;;;;;;11.23;7.50;;;16.40;99.90;;;;;;6177796;23;20001;-85
2023/07/23 02:36:46;;;;;;;12.18;7.20;;;16.40;99.90;;;;;;6177627;23;20037;-85
2023/07/23 02:39:12;;;;;;;11.18;7.25;;;16.40;99.90;;;;;;6176352;23;19997;-85
2023/07/23 02:41:37;;;;;;;8.50;6.32;;;16.30;99.90;;;;;;6176184;23;20309;-85
2023/07/23 02:44:03;;;;;;;8.90;6.90;;;16.30;99.90;;;;;;6177765;23;20012;-85
2023/07/23 02:46:29;;;;;;;13.02;7.55;;;16.30;99.90;;;;;;6178026;23;20005;-85
2023/07/23 02:48:55;;;;;;;7.75;6.65;;;16.30;99.90;;;;;;6150459;23;20028;-85
2023/07/23 02:51:21;;;;;;;10.80;7.40;;;16.30;99.90;;;;;;6178094;23;20001;-85
2023/07/23 02:53:47;;;;;;;8.52;6.13;;;16.20;99.90;;;;;;6175253;23;20163;-85
2023/07/23 02:56:13;;;;;;;10.63;7.40;;;16.20;99.90;;;;;;6177390;23;20081;-85
2023/07/23 02:58:38;;;;;;;10.25;6.57;;;16.30;99.90;;;;;;6176839;23;20359;-85
2023/07/23 03:01:04;;;;;;;12.48;8.00;;;16.30;99.90;;;;;;6175077;23;20009;-85
2023/07/23 03:03:31;;;;;;;9.38;6.65;;;16.20;99.90;;;;;;6177506;23;20001;-85
2023/07/23 03:05:57;;;;;;;13.55;7.78;;;16.20;99.90;;;;;;6176139;23;20239;-85
2023/07/23 03:08:22;;;;;;;18.25;7.95;;;16.20;99.90;;;;;;6177430;23;20021;-85
2023/07/23 03:10:48;;;;;;;8.68;6.32;;;16.30;99.90;;;;;;6176328;23;20016;-85
2023/07/23 03:13:13;;;;;;;11.93;7.13;;;16.30;99.90;;;;;;6177964;23;20040;-85
2023/07/23 03:15:39;;;;;;;14.20;7.90;;;16.30;99.90;;;;;;6176470;23;20036;-85
2023/07/23 03:18:05;;;;;;;11.25;7.43;;;16.30;99.90;;;;;;6176225;23;20032;-85
2023/07/23 03:20:30;;;;;;;11.70;6.72;;;16.30;99.90;;;;;;6176098;23;20089;-85
2023/07/23 03:22:56;;;;;;;10.60;6.55;;;16.30;99.90;;;;;;6177345;23;20172;-85
2023/07/23 03:25:22;;;;;;;16.50;7.68;;;16.30;99.90;;;;;;6177702;23;20659;-84
2023/07/23 03:27:47;;;;;;;9.00;6.22;;;16.30;99.90;;;;;;6176604;23;20005;-85
2023/07/23 03:30:13;;;;;;;10.80;6.13;;;16.30;99.90;;;;;;6176697;23;20001;-85
2023/07/23 03:32:39;;;;;;;8.48;6.10;;;16.30;99.90;;;;;;6175547;23;20001;-85
2023/07/23 03:35:06;;;;;;;9.02;5.80;;;16.30;99.90;;;;;;6176898;23;20431;-84
2023/07/23 03:37:31;;;;;;;5.97;4.90;;;16.30;99.90;;;;;;6177067;23;20005;-84
2023/07/23 03:39:57;;;;;;;8.65;6.03;;;16.30;99.90;;;;;;6176454;23;20085;-85
2023/07/23 03:42:24;;;;;;;9.38;6.00;;;16.30;99.90;;;;;;6176893;23;20439;-84
2023/07/23 03:44:50;;;;;;;9.15;5.88;;;16.40;99.90;;;;;;6175134;23;20009;-84
2023/07/23 03:47:17;;;;;;;10.80;6.07;;;16.40;99.90;;;;;;6176013;23;20458;-84
2023/07/23 03:49:44;;;;;;;9.68;5.95;;;16.40;99.90;;;;;;6176360;23;20005;-84
2023/07/23 03:52:11;;;;;;;11.23;6.60;;;16.40;99.90;;;;;;6174860;23;20001;-84
2023/07/23 03:54:37;;;;;;;12.68;6.90;;;16.40;99.90;;;;;;6151574;23;20059;-85
2023/07/23 03:57:03;;;;;;;8.13;6.65;;;16.30;99.90;;;;;;6176366;23;20009;-85
2023/07/23 03:59:30;;;;;;;11.05;6.55;;;16.30;99.90;;;;;;6176920;23;20005;-84
2023/07/23 04:01:56;;;;;;;6.90;5.95;;;16.30;99.90;;;;;;6176754;23;20001;-84
2023/07/23 04:04:22;;;;;;;9.95;6.63;;;16.30;99.90;;;;;;6177301;23;20339;-84
2023/07/23 04:06:48;;;;;;;9.13;6.93;;;16.30;99.90;;;;;;6177373;23;20080;-85
2023/07/23 04:09:13;;;;;;;11.60;6.75;;;16.30;99.90;;;;;;6176257;23;20027;-85
2023/07/23 04:11:39;;;;;;;16.63;7.40;;;16.30;99.90;;;;;;6177431;23;20412;-84
2023/07/23 04:14:05;;;;;;;10.05;6.28;;;16.20;99.90;;;;;;6176825;23;20032;-84
2023/07/23 04:16:30;;;;;;;8.68;6.30;;;16.20;99.90;;;;;;6177443;23;20031;-84
2023/07/23 04:18:56;;;;;;;10.07;6.65;;;16.20;99.90;;;;;;6177073;23;20001;-84
2023/07/23 04:21:22;;;;;;;8.05;6.10;;;16.20;99.90;;;;;;6177364;23;20005;-84
2023/07/23 04:23:49;;;;;;;8.65;6.80;;;16.20;99.90;;;;;;6176598;23;20001;-84
2023/07/23 04:26:16;;;;;;;13.20;7.15;;;16.30;99.90;;;;;;6177880;23;20013;-84
2023/07/23 04:28:42;;;;;;;8.77;5.93;;;16.20;99.90;;;;;;6177569;23;20330;-85
2023/07/23 04:31:07;;;;;;;9.77;6.30;;;16.20;99.90;;;;;;6177895;23;20008;-84
2023/07/23 04:33:33;;;;;;;8.73;5.90;;;16.20;99.90;;;;;;6180054;23;20328;-84
2023/07/23 04:35:59;;;;;;;9.02;5.85;;;16.20;99.90;;;;;;6178808;23;19997;-85
2023/07/23 04:38:25;;;;;;;8.02;6.38;;;16.10;99.90;;;;;;6179823;23;20068;-85
2023/07/23 04:40:51;;;;;;;8.63;6.10;;;16.20;99.90;;;;;;6178833;23;20059;-85
2023/07/23 04:43:16;;;;;;;11.73;6.00;;;16.30;99.90;;;;;;6179611;23;20004;-85
2023/07/23 04:45:42;;;;;;;11.13;6.10;;;16.30;99.90;;;;;;6176726;23;20216;-85
2023/07/23 04:48:10;;;;;;;6.70;5.18;;;16.30;99.90;;;;;;6179228;23;20025;-84
2023/07/23 04:50:36;;;;;;;11.82;6.28;;;16.30;99.90;;;;;;6179217;23;20012;-84
2023/07/23 04:53:02;;;;;;;9.07;5.70;;;16.40;99.90;;;;;;6178878;23;20025;-85
2023/07/23 04:55:28;;;;;;;6.40;4.57;;;16.50;99.90;;;;;;6179215;23;20088;-85
2023/07/23 04:57:53;;;;;;;8.10;5.47;;;16.50;99.90;;;;;;6176787;23;20005;-85
2023/07/23 05:00:19;;;;;;;7.90;4.82;;;16.50;99.90;;;;;;6178837;23;20047;-85
2023/07/23 05:02:45;;;;;;;10.63;5.00;;;16.60;99.90;;;;;;6178600;23;20004;-85
2023/07/23 05:05:10;;;;;;;15.25;5.78;;;16.60;99.90;;;;;;6176143;23;20021;-85
2023/07/23 05:07:36;;;;;;;9.20;5.30;;;16.60;99.90;;;;;;6176417;23;20079;-85
2023/07/23 05:10:02;;;;;;;9.48;5.57;;;16.70;99.90;;;;;;6178068;23;20040;-85
2023/07/23 05:12:28;;;;;;;7.68;5.30;;;16.70;99.90;;;;;;6176636;23;19997;-85
2023/07/23 05:15:17;;;;;;;10.70;6.00;;;16.80;99.90;;;;;;6178386;23;20088;-85
2023/07/23 05:17:42;;;;;;;7.43;4.63;;;16.80;99.90;;;;;;6177175;23;20044;-86
2023/07/23 05:20:09;;;;;;;13.90;5.07;;;16.80;99.90;;;;;;6178094;23;20005;-84
2023/07/23 05:22:39;;;;;;;9.70;4.50;;;16.80;99.90;;;;;;6178708;23;20454;-85
2023/07/23 05:25:05;;;;;;;7.38;4.85;;;16.90;99.90;;;;;;6176174;23;20024;-84
2023/07/23 05:27:31;;;;;;;8.73;5.03;;;16.90;99.90;;;;;;6177610;23;20001;-84
2023/07/23 05:29:57;;;;;;;6.10;4.25;;;16.80;99.90;;;;;;6177253;23;20047;-84
2023/07/23 05:32:22;;;;;;;6.05;4.65;;;16.90;99.90;;;;;;6177653;23;20080;-84
2023/07/23 05:34:48;;;;;;;6.70;4.65;;;16.90;99.90;;;;;;6174115;23;20084;-85
2023/07/23 05:37:13;;;;;;;8.13;5.00;;;16.80;99.90;;;;;;6178330;23;20379;-84
2023/07/23 05:39:39;;;;;;;6.53;4.80;;;16.90;99.90;;;;;;6178170;23;20345;-84
2023/07/23 05:42:05;;;;;;;9.70;5.43;;;16.80;99.90;;;;;;6175539;23;20326;-85
2023/07/23 05:53:43;;;;;;;8.27;5.35;;;16.90;99.90;;;;;;6162448;23;20032;-84
2023/07/23 05:56:08;;;;;;;6.97;4.80;;;17.00;99.90;;;;;;6174865;23;20013;-85
2023/07/23 05:58:34;;;;;;;23.02;5.43;;;16.90;99.90;;;;;;6147275;23;20127;-84
2023/07/23 06:01:00;;;;;;;9.45;5.40;;;16.90;99.90;;;;;;6173462;23;20332;-85
2023/07/23 06:03:25;;;;;;;11.27;6.32;;;17.00;99.90;;;;;;6176465;23;20506;-85
2023/07/23 06:05:52;;;;;;;8.13;4.57;;;17.00;99.90;;;;;;6150414;23;20013;-84
2023/07/23 06:08:17;;;;;;;7.78;4.97;;;17.00;99.90;;;;;;6178136;23;20005;-85
2023/07/23 06:10:43;;;;;;;11.82;5.15;;;17.00;99.90;;;;;;6178053;23;20005;-85
2023/07/23 06:13:09;;;;;;;10.20;5.13;;;17.00;99.90;;;;;;6177514;23;20048;-85
2023/07/23 06:15:34;;;;;;;10.05;4.93;;;17.10;99.90;;;;;;6175730;23;20331;-84
2023/07/23 06:18:00;;;;;;;10.15;5.65;;;17.10;99.90;;;;;;6178432;23;20431;-84
2023/07/23 06:20:25;;;;;;;13.48;5.80;;;17.20;99.90;;;;;;6176762;23;20005;-84
2023/07/23 06:22:51;;;;;;;8.85;6.00;;;17.20;99.90;;;;;;6178237;23;20013;-84
2023/07/23 06:25:17;;;;;;;6.75;4.90;;;17.20;99.90;;;;;;6177002;23;20012;-83
2023/07/23 06:27:42;;;;;;;10.02;4.90;;;17.20;99.90;;;;;;6177757;23;20003;-84
2023/07/23 06:30:08;;;;;;;8.18;5.10;;;17.20;99.90;;;;;;6176961;23;20005;-84
2023/07/23 06:32:34;;;;;;;11.95;5.00;;;17.20;99.90;;;;;;6176719;23;20041;-84
2023/07/23 06:34:59;;;;;;;9.63;5.60;;;17.30;99.90;;;;;;6171140;23;20533;-85
2023/07/23 06:37:25;;;;;;;10.38;4.65;;;17.40;99.90;;;;;;6175799;23;20382;-84
2023/07/23 06:39:51;;;;;;;6.75;5.00;;;17.40;99.90;;;;;;6176269;23;20001;-84
2023/07/23 06:42:16;;;;;;;17.33;6.85;;;17.40;99.90;;;;;;6178111;23;19997;-84
2023/07/23 06:44:42;;;;;;;7.03;4.95;;;17.50;99.90;;;;;;6176529;23;20443;-84
2023/07/23 06:47:08;;;;;;;7.20;4.88;;;17.50;99.90;;;;;;6178477;23;20585;-84
2023/07/23 06:49:33;;;;;;;8.50;5.30;;;17.60;99.90;;;;;;6151406;23;20096;-84
2023/07/23 06:51:59;;;;;;;12.30;5.05;;;17.70;99.90;;;;;;6176890;23;20005;-84
2023/07/23 06:54:25;;;;;;;11.95;5.90;;;17.80;99.90;;;;;;6177925;23;20017;-85
2023/07/23 06:56:54;;;;;;;7.18;5.25;;;17.80;99.90;;;;;;6179452;23;20558;-85
2023/07/23 06:59:20;;;;;;;10.55;5.40;;;17.90;99.90;;;;;;6173410;23;20455;-84
2023/07/23 07:01:46;;;;;;;6.47;5.25;;;18.00;99.90;;;;;;6178541;23;20427;-84
2023/07/23 07:04:11;;;;;;;7.90;4.55;;;18.00;99.90;;;;;;6177721;23;19997;-85
2023/07/23 07:06:37;;;;;;;10.07;5.82;;;18.00;99.90;;;;;;6179097;23;20084;-84
2023/07/23 07:09:03;;;;;;;10.18;5.00;;;18.10;99.90;;;;;;6180212;23;20049;-84
2023/07/23 07:11:28;;;;;;;7.20;5.57;;;18.20;99.90;;;;;;6179388;23;20028;-84
2023/07/23 07:13:54;;;;;;;8.20;5.32;;;18.20;99.90;;;;;;6178875;23;20004;-83
2023/07/23 07:16:20;;;;;;;7.00;4.70;;;18.20;99.90;;;;;;6180556;23;20020;-85
2023/07/23 07:18:46;;;;;;;10.85;5.57;;;18.30;99.90;;;;;;6178131;23;20005;-85
2023/07/23 07:21:11;;;;;;;9.30;5.22;;;18.40;99.90;;;;;;6176357;23;20001;-85
2023/07/23 07:23:37;;;;;;;9.27;5.18;;;18.50;99.90;;;;;;6176033;23;20004;-84
2023/07/23 07:26:02;;;;;;;18.00;5.35;;;18.50;99.90;;;;;;6149956;23;20019;-84
2023/07/23 07:28:31;;;;;;;7.13;4.68;;;18.50;99.90;;;;;;6176337;23;20005;-84
2023/07/23 07:31:01;;;;;;;6.72;4.32;;;18.70;99.90;;;;;;6146319;23;20001;-84
2023/07/23 07:33:27;;;;;;;8.75;4.85;;;18.70;99.90;;;;;;6174663;23;20064;-84
2023/07/23 07:35:59;;;;;;;11.75;4.88;;;18.70;99.90;;;;;;6176704;23;20434;-84
2023/07/23 07:38:26;;;;;;;9.65;5.35;;;18.80;99.90;;;;;;6175481;23;20005;-85
2023/07/23 07:40:52;;;;;;;9.90;4.97;;;18.80;99.90;;;;;;6173018;23;20036;-84
2023/07/23 07:43:18;;;;;;;7.32;4.70;;;18.80;99.90;;;;;;6172753;23;20077;-84
2023/07/23 07:45:58;;;;;;;9.65;4.80;;;18.90;99.90;;;;;;6174441;23;20067;-83
2023/07/23 07:48:23;;;;;;;9.77;5.20;;;18.90;99.90;;;;;;6176378;23;20004;-84
2023/07/23 07:51:18;;;;;;;7.72;5.20;;;18.90;99.90;;;;;;6174913;23;20001;-84
2023/07/23 07:53:45;;;;;;;12.18;5.35;;;18.90;99.90;;;;;;6145247;23;20017;-83
2023/07/23 07:56:17;;;;;;;17.08;5.38;;;18.90;99.90;;;;;;6177249;23;20608;-85
2023/07/23 07:58:44;;;;;;;8.57;4.22;;;19.00;99.90;;;;;;6174779;23;20012;-84
2023/07/23 08:01:10;;;;;;;10.95;5.35;;;19.00;99.90;;;;;;6176978;23;20012;-84
2023/07/23 08:03:36;;;;;;;9.63;5.53;;;19.10;99.90;;;;;;6149202;23;20009;-85
2023/07/23 08:06:05;;;;;;;9.43;5.25;;;19.10;99.90;;;;;;6175978;23;20017;-84
2023/07/23 08:08:33;;;;;;;11.73;4.70;;;19.10;99.90;;;;;;6178136;23;20060;-84
2023/07/23 08:11:01;;;;;;;8.80;5.07;;;19.20;99.90;;;;;;6176667;23;20005;-84
2023/07/23 08:13:27;;;;;;;12.85;5.00;;;19.30;99.90;;;;;;6178115;23;20010;-85
2023/07/23 08:15:54;;;;;;;6.38;5.00;;;19.30;99.90;;;;;;6177605;23;20438;-84
2023/07/23 08:18:20;;;;;;;8.45;4.50;;;19.40;99.90;;;;;;6178255;23;20395;-85
2023/07/23 08:20:46;;;;;;;11.63;5.22;;;19.40;99.90;;;;;;6177484;23;20001;-84
2023/07/23 08:23:12;;;;;;;9.50;4.90;;;19.40;99.90;;;;;;6177807;23;20005;-89
2023/07/23 08:25:38;;;;;;;14.25;5.13;;;19.50;99.90;;;;;;6177944;23;20020;-85
2023/07/23 08:28:06;;;;;;;7.25;4.32;;;19.60;99.90;;;;;;6176899;23;20084;-84
2023/07/23 08:30:32;;;;;;;11.43;5.63;;;19.70;99.90;;;;;;6178832;23;20032;-86
2023/07/23 08:33:04;;;;;;;7.28;4.53;;;19.70;99.90;;;;;;6178195;23;20056;-86
2023/07/23 08:35:30;;;;;;;10.48;5.28;;;19.80;99.90;;;;;;6178277;23;20331;-86
2023/07/23 08:37:56;;;;;;;6.57;5.15;;;19.80;99.90;;;;;;6178495;23;20009;-86
2023/07/23 08:40:24;;;;;;;6.85;4.90;;;19.80;99.90;;;;;;6178849;23;20431;-85
2023/07/23 08:42:53;;;;;;;6.55;4.65;;;19.90;99.90;;;;;;6178356;23;20205;-85
2023/07/23 08:45:49;;;;;;;13.48;4.53;;;19.90;99.90;;;;;;6176972;23;20012;-84
2023/07/23 08:48:17;;;;;;;6.07;4.57;;;19.90;99.90;;;;;;6179499;23;20005;-84
2023/07/23 08:50:48;;;;;;;7.65;5.32;;;20.00;99.90;;;;;;6179452;23;20457;-84
2023/07/23 08:53:15;;;;;;;7.47;4.30;;;20.00;99.90;;;;;;6177349;23;20012;-85
2023/07/23 08:55:43;;;;;;;9.20;4.93;;;20.10;99.90;;;;;;6179749;23;20016;-84
2023/07/23 08:58:14;;;;;;;8.70;4.00;;;20.20;99.90;;;;;;6178051;23;20449;-85
2023/07/23 09:00:42;;;;;;;6.13;4.75;;;20.30;99.90;;;;;;6178597;23;20075;-85
2023/07/23 09:03:10;;;;;;;9.75;4.13;;;20.40;99.90;;;;;;6177932;23;20001;-85
2023/07/23 09:05:35;;;;;;;7.18;4.25;;;20.50;99.90;;;;;;6179731;23;20107;-85
2023/07/23 09:08:02;;;;;;;10.18;4.07;;;20.50;99.90;;;;;;6150091;23;20001;-84
2023/07/23 09:10:27;;;;;;;7.82;5.18;;;20.60;99.90;;;;;;6176760;23;20380;-84
2023/07/23 09:12:53;;;;;;;8.68;4.80;;;20.70;99.90;;;;;;6176797;23;20091;-85
2023/07/23 09:15:19;;;;;;;8.52;4.30;;;20.90;99.90;;;;;;6177344;23;20001;-84
2023/07/23 09:17:49;;;;;;;10.57;4.97;;;21.00;99.90;;;;;;6174939;23;20313;-83
2023/07/23 09:20:17;;;;;;;8.85;4.60;;;21.00;99.90;;;;;;6148369;23;20000;-84
2023/07/23 09:22:43;;;;;;;8.70;4.65;;;21.10;99.90;;;;;;6177465;23;20009;-84
2023/07/23 09:25:09;;;;;;;7.60;4.75;;;21.10;99.90;;;;;;6176164;23;20021;-84
2023/07/23 09:27:41;;;;;;;8.18;3.90;;;21.00;99.90;;;;;;6176761;23;20043;-83
2023/07/23 09:30:07;;;;;;;8.57;3.70;;;21.00;99.90;;;;;;6176359;23;20009;-84
2023/07/23 09:32:32;;;;;;;7.90;4.00;;;21.20;99.90;;;;;;6177012;23;20040;-83
2023/07/23 09:34:59;;;;;;;8.13;3.80;;;21.30;99.90;;;;;;6178272;23;20005;-84
2023/07/23 09:37:28;;;;;;;11.77;5.35;;;21.30;99.90;;;;;;6177218;23;20016;-83
2023/07/23 09:39:57;;;;;;;7.05;4.13;;;21.40;99.90;;;;;;6175064;23;20005;-83
2023/07/23 09:42:23;;;;;;;11.48;4.25;;;21.50;99.90;;;;;;6177203;23;20332;-85
2023/07/23 09:44:50;;;;;;;5.57;3.97;;;21.60;99.90;;;;;;6177028;23;20435;-85
2023/07/23 09:47:16;;;;;;;8.90;4.07;;;21.60;99.90;;;;;;6176170;23;20013;-86
2023/07/23 09:49:44;;;;;;;7.82;3.63;;;21.70;99.90;;;;;;6175851;23;20613;-85
2023/07/23 09:52:10;;;;;;;8.30;3.92;;;21.80;99.90;;;;;;6175411;23;20056;-84
2023/07/23 09:54:36;;;;;;;8.27;4.38;;;21.80;99.90;;;;;;6174673;23;20102;-86
2023/07/23 09:57:03;;;;;;;10.30;4.05;;;21.80;99.90;;;;;;6174935;23;20013;-83
2023/07/23 09:59:32;;;;;;;7.38;4.13;;;21.90;99.90;;;;;;6174712;23;20437;-85
2023/07/23 10:01:59;;;;;;;8.57;3.55;;;21.90;99.90;;;;;;6176027;23;20009;-84
2023/07/23 10:04:28;;;;;;;9.90;4.13;;;21.90;99.90;;;;;;6174460;23;20446;-85
2023/07/23 10:06:55;;;;;;;8.55;3.85;;;21.90;99.90;;;;;;6177002;23;20375;-83
2023/07/23 10:09:22;;;;;;;6.95;4.05;;;21.90;99.90;;;;;;6174389;23;20442;-83
2023/07/23 10:11:47;;;;;;;6.63;3.78;;;21.80;99.90;;;;;;6173558;23;20005;-82
2023/07/23 10:14:13;;;;;;;11.60;4.05;;;21.90;99.90;;;;;;6176912;23;20048;-84
2023/07/23 10:16:42;;;;;;;16.35;3.72;;;22.00;99.90;;;;;;6178194;23;20001;-83
2023/07/23 10:19:09;;;;;;;6.03;3.53;;;22.00;99.90;;;;;;6177623;23;20037;-84
2023/07/23 10:21:36;;;;;;;6.75;3.00;;;22.10;99.90;;;;;;6175270;23;20009;-82
2023/07/23 10:24:06;;;;;;;4.82;2.90;;;22.20;99.00;;;;;;6175237;23;20059;-81
2023/07/23 10:26:43;;;;;;;4.70;2.78;;;22.30;97.10;;;;;;6177369;23;20052;-83
2023/07/23 10:29:11;;;;;;;4.72;2.83;;;22.30;97.20;;;;;;6173993;23;20435;-84
2023/07/23 10:31:38;;;;;;;8.10;2.40;;;22.30;90.50;;;;;;6173633;23;20008;-84
2023/07/23 10:34:25;;;;;;;2.55;2.25;;;22.40;85.40;;;;;;6175021;23;20009;-83
2023/07/23 10:37:21;;;;;;;3.80;2.70;;;22.40;90.00;;;;;;6177543;23;20324;-84
2023/07/23 10:39:49;;;;;;;5.72;2.60;;;22.40;92.60;;;;;;6143680;23;20001;-84
2023/07/23 10:42:40;;;;;;;4.68;2.85;;;22.40;92.30;;;;;;6174628;23;20415;-85
2023/07/23 10:45:21;;;;;;;4.00;2.80;;;22.40;94.30;;;;;;6176796;23;20330;-85
2023/07/23 10:47:57;;;;;;;5.95;2.97;;;22.30;99.90;;;;;;6176249;23;20001;-82
2023/07/23 10:50:25;;;;;;;5.93;3.08;;;22.30;96.60;;;;;;6176735;23;20092;-84
2023/07/23 10:53:02;;;;;;;5.05;2.95;;;22.40;95.70;;;;;;6175897;23;20017;-84
2023/07/23 10:55:46;;;;;;;3.55;2.75;;;22.40;97.10;;;;;;6174576;23;20005;-83
2023/07/23 10:58:20;;;;;;;6.55;3.25;;;22.50;91.60;;;;;;6169555;23;20514;-84
2023/07/23 11:00:52;;;;;;;10.43;3.17;;;22.60;94.50;;;;;;6174723;23;20001;-83
2023/07/23 11:03:19;;;;;;;8.60;2.70;;;22.50;92.10;;;;;;6176339;23;20396;-84
2023/07/23 11:05:45;;;;;;;3.90;3.05;;;22.70;85.50;;;;;;6148363;23;20334;-83
2023/07/23 11:08:12;;;;;;;4.95;3.40;;;22.60;92.20;;;;;;6175918;23;20476;-83
2023/07/23 11:10:53;;;;;;;3.72;2.92;;;22.60;92.20;;;;;;6149489;23;20001;-84
2023/07/23 11:13:20;;;;;;;5.22;2.92;;;22.60;90.80;;;;;;6176060;23;20001;-84
2023/07/23 11:15:46;;;;;;;10.13;3.08;;;22.50;93.40;;;;;;6176295;23;20031;-84
2023/07/23 11:18:12;;;;;;;4.90;3.55;;;22.60;93.40;;;;;;6177102;23;20079;-84
2023/07/23 11:20:43;;;;;;;4.00;3.03;;;22.50;95.50;;;;;;6175774;23;20466;-82
2023/07/23 11:23:12;;;;;;;12.07;3.20;;;22.50;99.80;;;;;;6174128;23;20435;-84
2023/07/23 11:25:38;;;;;;;8.65;3.55;;;22.50;91.60;;;;;;6174857;23;20017;-83
2023/07/23 11:28:04;;;;;;;3.25;2.60;;;22.60;85.90;;;;;;6171785;23;20088;-84
2023/07/23 11:30:33;;;;;;;7.68;3.47;;;22.70;89.40;;;;;;6172251;23;20431;-85
2023/07/23 11:32:59;;;;;;;6.53;3.20;;;22.70;86.00;;;;;;6171608;23;20011;-88
2023/07/23 11:35:25;;;;;;;7.75;3.10;;;22.60;86.00;;;;;;6177417;23;20076;-86
2023/07/23 11:37:52;;;;;;;6.15;3.10;;;22.70;91.30;;;;;;6175461;23;20047;-83
2023/07/23 11:40:23;;;;;;;4.38;3.13;;;22.70;93.10;;;;;;6148618;23;20435;-83
2023/07/23 11:42:51;;;;;;;7.60;3.50;;;22.80;82.40;;;;;;6175692;23;20001;-81
2023/07/23 11:45:16;;;;;;;10.60;3.17;;;22.90;80.10;;;;;;6175713;23;20087;-85
2023/07/23 11:47:49;;;;;;;4.25;3.13;;;22.90;79.90;;;;;;6176258;23;20481;-84
2023/07/23 11:50:19;;;;;;;7.30;3.15;;;22.90;80.50;;;;;;6174979;23;20031;-85
2023/07/23 11:52:49;;;;;;;10.02;3.83;;;22.80;80.20;;;;;;6175604;23;20075;-84
2023/07/23 11:55:27;;;;;;;3.97;3.33;;;22.80;79.50;;;;;;6173910;23;20116;-87
2023/07/23 11:57:55;;;;;;;5.25;3.60;;;22.80;81.60;;;;;;6175590;23;20009;-84
2023/07/23 12:00:31;;;;;;;8.95;4.25;;;22.80;77.90;;;;;;6175302;23;20343;-82
2023/07/23 12:02:58;;;;;;;5.18;3.88;;;22.70;77.40;;;;;;6175807;23;19997;-85
2023/07/23 12:05:24;;;;;;;7.63;4.13;;;22.60;82.70;;;;;;6174741;23;20465;-82
2023/07/23 12:07:51;;;;;;;8.98;3.90;;;22.50;82.80;;;;;;6177109;23;20002;-82
2023/07/23 12:10:17;;;;;;;8.27;3.83;;;22.40;83.70;;;;;;6176505;23;20021;-82
2023/07/23 12:12:46;;;;;;;7.60;4.10;;;22.40;82.30;;;;;;6177135;23;20001;-86
2023/07/23 12:15:14;;;;;;;8.82;3.75;;;22.30;86.50;;;;;;6177520;23;20009;-84
2023/07/23 12:17:40;;;;;;;8.38;4.25;;;22.20;92.50;;;;;;6175854;23;20044;-86
2023/07/23 12:20:09;;;;;;;5.75;4.07;;;22.10;94.40;;;;;;6177724;23;20442;-82
2023/07/23 12:22:54;;;;;;;7.57;3.75;;;22.00;95.90;;;;;;6176981;23;20091;-82
2023/07/23 12:25:21;;;;;;;6.65;3.75;;;22.00;97.40;;;;;;6174599;23;20063;-90
2023/07/23 12:27:47;;;;;;;15.70;4.13;;;21.90;95.30;;;;;;6163139;23;20004;-84
2023/07/23 12:30:14;;;;;;;12.40;4.57;;;21.90;95.30;;;;;;6173609;23;20028;-82
2023/07/23 12:32:40;;;;;;;7.60;4.45;;;21.90;97.20;;;;;;6174570;23;20025;-83
2023/07/23 12:35:07;;;;;;;10.23;4.53;;;21.90;94.50;;;;;;6174454;23;20052;-83
2023/07/23 12:37:34;;;;;;;6.70;3.97;;;22.00;94.70;;;;;;6174625;23;20017;-85
2023/07/23 12:40:04;;;;;;;10.05;3.97;;;22.00;95.80;;;;;;6176058;23;20009;-86
2023/07/23 12:42:30;;;;;;;9.98;4.30;;;22.00;94.90;;;;;;6176597;23;20079;-82
2023/07/23 12:44:56;;;;;;;8.93;4.30;;;22.00;95.00;;;;;;6175293;23;20013;-86
2023/07/23 12:47:21;;;;;;;7.50;4.40;;;22.00;93.00;;;;;;6173657;23;20001;-88
2023/07/23 12:49:47;;;;;;;4.88;3.83;;;21.90;92.80;;;;;;6175651;23;20032;-84
2023/07/23 12:52:16;;;;;;;8.05;4.63;;;21.90;92.30;;;;;;6177039;23;20012;-82